sensor_id;sensor_type;location;lat;lon;timestamp;temperature;humidity
72604;DHT22;60645;56.968;24.196;2023-02-08T00:01:49;13.70;50.20
72604;DHT22;60645;56.968;24.196;2023-02-08T00:04:16;13.60;50.70
72604;DHT22;60645;56.968;24.196;2023-02-08T00:06:43;13.60;50.50
72604;DHT22;60645;56.968;24.196;2023-02-08T00:09:10;13.50;50.40
72604;DHT22;60645;56.968;24.196;2023-02-08T00:11:37;13.50;50.70
72604;DHT22;60645;56.968;24.196;2023-02-08T00:14:03;13.50;50.60
72604;DHT22;60645;56.968;24.196;2023-02-08T00:16:30;13.40;50.70
72604;DHT22;60645;56.968;24.196;2023-02-08T00:18:57;13.50;50.70
72604;DHT22;60645;56.968;24.196;2023-02-08T00:21:24;13.50;50.60
72604;DHT22;60645;56.968;24.196;2023-02-08T00:23:51;13.40;50.60
72604;DHT22;60645;56.968;24.196;2023-02-08T00:26:18;13.50;50.60
72604;DHT22;60645;56.968;24.196;2023-02-08T00:28:44;13.40;50.50
72604;DHT22;60645;56.968;24.196;2023-02-08T00:31:11;13.20;50.10
72604;DHT22;60645;56.968;24.196;2023-02-08T00:33:38;13.30;50.20
72604;DHT22;60645;56.968;24.196;2023-02-08T00:36:06;13.20;50.40
72604;DHT22;60645;56.968;24.196;2023-02-08T00:38:34;13.20;50.70
72604;DHT22;60645;56.968;24.196;2023-02-08T00:41:01;13.20;50.70
72604;DHT22;60645;56.968;24.196;2023-02-08T00:43:28;13.20;50.80
72604;DHT22;60645;56.968;24.196;2023-02-08T00:45:57;13.10;51.10
72604;DHT22;60645;56.968;24.196;2023-02-08T00:48:25;13.10;51.60
72604;DHT22;60645;56.968;24.196;2023-02-08T00:51:05;13.20;51.30
72604;DHT22;60645;56.968;24.196;2023-02-08T00:53:37;13.10;51.50
72604;DHT22;60645;56.968;24.196;2023-02-08T00:56:05;13.20;51.20
72604;DHT22;60645;56.968;24.196;2023-02-08T00:58:32;13.20;51.30
72604;DHT22;60645;56.968;24.196;2023-02-08T01:00:59;13.20;51.40
72604;DHT22;60645;56.968;24.196;2023-02-08T01:03:26;13.10;51.30
72604;DHT22;60645;56.968;24.196;2023-02-08T01:05:53;13.10;51.60
72604;DHT22;60645;56.968;24.196;2023-02-08T01:08:20;13.20;51.50
72604;DHT22;60645;56.968;24.196;2023-02-08T01:10:47;13.20;51.50
72604;DHT22;60645;56.968;24.196;2023-02-08T01:13:14;13.10;51.50
72604;DHT22;60645;56.968;24.196;2023-02-08T01:15:41;13.20;51.50
72604;DHT22;60645;56.968;24.196;2023-02-08T01:18:09;13.20;51.60
72604;DHT22;60645;56.968;24.196;2023-02-08T01:20:36;13.10;51.60
72604;DHT22;60645;56.968;24.196;2023-02-08T01:23:04;13.20;51.60
72604;DHT22;60645;56.968;24.196;2023-02-08T01:25:30;13.20;51.70
72604;DHT22;60645;56.968;24.196;2023-02-08T01:27:57;13.20;51.70
72604;DHT22;60645;56.968;24.196;2023-02-08T01:30:24;13.20;51.80
72604;DHT22;60645;56.968;24.196;2023-02-08T01:32:51;13.30;51.90
72604;DHT22;60645;56.968;24.196;2023-02-08T01:35:18;13.20;51.90
72604;DHT22;60645;56.968;24.196;2023-02-08T01:37:45;13.30;51.90
72604;DHT22;60645;56.968;24.196;2023-02-08T01:40:12;13.40;51.90
72604;DHT22;60645;56.968;24.196;2023-02-08T01:42:38;13.40;51.90
72604;DHT22;60645;56.968;24.196;2023-02-08T01:47:43;13.40;51.50
72604;DHT22;60645;56.968;24.196;2023-02-08T01:50:11;13.30;51.60
72604;DHT22;60645;56.968;24.196;2023-02-08T01:52:38;13.40;51.50
72604;DHT22;60645;56.968;24.196;2023-02-08T01:55:12;13.30;51.50
72604;DHT22;60645;56.968;24.196;2023-02-08T01:57:42;13.40;51.60
72604;DHT22;60645;56.968;24.196;2023-02-08T02:00:15;13.40;51.40
72604;DHT22;60645;56.968;24.196;2023-02-08T02:02:44;13.40;51.50
72604;DHT22;60645;56.968;24.196;2023-02-08T02:05:13;13.50;51.60
72604;DHT22;60645;56.968;24.196;2023-02-08T02:07:41;13.40;51.50
72604;DHT22;60645;56.968;24.196;2023-02-08T02:10:17;13.50;51.30
72604;DHT22;60645;56.968;24.196;2023-02-08T02:12:46;13.50;51.50
72604;DHT22;60645;56.968;24.196;2023-02-08T02:15:13;13.50;51.20
72604;DHT22;60645;56.968;24.196;2023-02-08T02:17:41;13.50;51.30
72604;DHT22;60645;56.968;24.196;2023-02-08T02:34:09;13.60;51.30
72604;DHT22;60645;56.968;24.196;2023-02-08T02:39:14;13.60;51.10
72604;DHT22;60645;56.968;24.196;2023-02-08T02:44:43;13.60;51.00
72604;DHT22;60645;56.968;24.196;2023-02-08T02:47:39;13.60;51.20
72604;DHT22;60645;56.968;24.196;2023-02-08T02:56:08;13.70;51.20
72604;DHT22;60645;56.968;24.196;2023-02-08T02:58:39;13.70;51.20
72604;DHT22;60645;56.968;24.196;2023-02-08T03:01:06;13.60;51.10
72604;DHT22;60645;56.968;24.196;2023-02-08T03:03:33;13.70;51.30
72604;DHT22;60645;56.968;24.196;2023-02-08T03:06:11;13.60;51.10
72604;DHT22;60645;56.968;24.196;2023-02-08T03:11:33;13.70;51.20
72604;DHT22;60645;56.968;24.196;2023-02-08T03:16:56;13.70;51.20
72604;DHT22;60645;56.968;24.196;2023-02-08T03:19:35;13.70;51.30
72604;DHT22;60645;56.968;24.196;2023-02-08T03:25:04;13.80;51.30
72604;DHT22;60645;56.968;24.196;2023-02-08T03:27:40;13.80;51.30
72604;DHT22;60645;56.968;24.196;2023-02-08T03:30:13;13.80;51.40
72604;DHT22;60645;56.968;24.196;2023-02-08T03:37:44;13.80;53.20
72604;DHT22;60645;56.968;24.196;2023-02-08T03:40:20;13.70;54.30
72604;DHT22;60645;56.968;24.196;2023-02-08T03:42:50;13.90;54.80
72604;DHT22;60645;56.968;24.196;2023-02-08T03:45:22;13.90;55.20
72604;DHT22;60645;56.968;24.196;2023-02-08T03:47:53;13.80;55.60
72604;DHT22;60645;56.968;24.196;2023-02-08T03:50:23;13.80;56.00
72604;DHT22;60645;56.968;24.196;2023-02-08T03:52:51;13.80;55.90
72604;DHT22;60645;56.968;24.196;2023-02-08T03:55:24;13.80;56.20
72604;DHT22;60645;56.968;24.196;2023-02-08T03:58:15;13.90;56.10
72604;DHT22;60645;56.968;24.196;2023-02-08T04:00:57;13.90;56.40
72604;DHT22;60645;56.968;24.196;2023-02-08T04:03:29;13.90;56.20
72604;DHT22;60645;56.968;24.196;2023-02-08T04:05:58;13.90;56.50
72604;DHT22;60645;56.968;24.196;2023-02-08T04:08:24;13.90;56.20
72604;DHT22;60645;56.968;24.196;2023-02-08T04:10:51;13.90;56.00
72604;DHT22;60645;56.968;24.196;2023-02-08T04:13:18;13.80;56.10
72604;DHT22;60645;56.968;24.196;2023-02-08T04:15:45;13.80;56.20
72604;DHT22;60645;56.968;24.196;2023-02-08T04:18:12;13.80;56.00
72604;DHT22;60645;56.968;24.196;2023-02-08T04:20:39;13.80;55.70
72604;DHT22;60645;56.968;24.196;2023-02-08T04:23:06;13.80;55.60
72604;DHT22;60645;56.968;24.196;2023-02-08T04:25:33;13.80;55.50
72604;DHT22;60645;56.968;24.196;2023-02-08T04:28:00;13.70;55.40
72604;DHT22;60645;56.968;24.196;2023-02-08T04:30:27;13.70;55.50
72604;DHT22;60645;56.968;24.196;2023-02-08T04:32:54;13.70;55.40
72604;DHT22;60645;56.968;24.196;2023-02-08T04:35:21;13.80;55.60
72604;DHT22;60645;56.968;24.196;2023-02-08T04:37:48;13.90;55.40
72604;DHT22;60645;56.968;24.196;2023-02-08T04:40:15;13.80;55.30
72604;DHT22;60645;56.968;24.196;2023-02-08T04:42:42;13.80;55.20
72604;DHT22;60645;56.968;24.196;2023-02-08T04:45:09;13.80;55.20
72604;DHT22;60645;56.968;24.196;2023-02-08T04:47:36;13.80;54.90
72604;DHT22;60645;56.968;24.196;2023-02-08T04:50:03;13.80;55.00
72604;DHT22;60645;56.968;24.196;2023-02-08T04:52:30;13.90;55.20
72604;DHT22;60645;56.968;24.196;2023-02-08T04:54:57;13.80;55.10
72604;DHT22;60645;56.968;24.196;2023-02-08T04:57:23;13.80;55.00
72604;DHT22;60645;56.968;24.196;2023-02-08T04:59:50;13.80;54.70
72604;DHT22;60645;56.968;24.196;2023-02-08T05:02:17;13.80;54.80
72604;DHT22;60645;56.968;24.196;2023-02-08T05:04:44;13.90;54.70
72604;DHT22;60645;56.968;24.196;2023-02-08T05:07:11;13.80;54.70
72604;DHT22;60645;56.968;24.196;2023-02-08T05:09:37;13.80;54.70
72604;DHT22;60645;56.968;24.196;2023-02-08T05:12:04;13.70;54.90
72604;DHT22;60645;56.968;24.196;2023-02-08T05:14:31;13.70;54.90
72604;DHT22;60645;56.968;24.196;2023-02-08T05:16:58;13.70;54.80
72604;DHT22;60645;56.968;24.196;2023-02-08T05:19:25;13.70;54.60
72604;DHT22;60645;56.968;24.196;2023-02-08T05:21:52;13.80;54.90
72604;DHT22;60645;56.968;24.196;2023-02-08T05:24:19;13.70;54.80
72604;DHT22;60645;56.968;24.196;2023-02-08T07:01:43;16.90;42.10
72604;DHT22;60645;56.968;24.196;2023-02-08T07:04:10;9.80;56.20
72604;DHT22;60645;56.968;24.196;2023-02-08T07:06:37;7.50;63.70
72604;DHT22;60645;56.968;24.196;2023-02-08T07:09:03;5.70;69.70
72604;DHT22;60645;56.968;24.196;2023-02-08T07:11:30;4.50;75.20
72604;DHT22;60645;56.968;24.196;2023-02-08T07:13:57;3.80;78.40
72604;DHT22;60645;56.968;24.196;2023-02-08T07:16:24;3.40;80.50
72604;DHT22;60645;56.968;24.196;2023-02-08T07:18:51;2.80;82.20
72604;DHT22;60645;56.968;24.196;2023-02-08T07:21:18;2.70;83.90
72604;DHT22;60645;56.968;24.196;2023-02-08T07:23:44;2.70;84.30
72604;DHT22;60645;56.968;24.196;2023-02-08T07:26:12;2.50;85.00
72604;DHT22;60645;56.968;24.196;2023-02-08T07:28:41;2.50;85.20
72604;DHT22;60645;56.968;24.196;2023-02-08T07:31:11;2.50;86.00
72604;DHT22;60645;56.968;24.196;2023-02-08T07:33:39;2.40;86.30
72604;DHT22;60645;56.968;24.196;2023-02-08T07:36:07;2.40;86.40
72604;DHT22;60645;56.968;24.196;2023-02-08T07:38:34;2.40;86.60
72604;DHT22;60645;56.968;24.196;2023-02-08T07:41:09;2.50;86.90
72604;DHT22;60645;56.968;24.196;2023-02-08T07:43:37;2.40;87.00
72604;DHT22;60645;56.968;24.196;2023-02-08T07:46:10;2.30;87.10
72604;DHT22;60645;56.968;24.196;2023-02-08T07:48:37;2.20;86.80
72604;DHT22;60645;56.968;24.196;2023-02-08T07:51:07;2.30;87.00
72604;DHT22;60645;56.968;24.196;2023-02-08T07:53:34;2.40;87.10
72604;DHT22;60645;56.968;24.196;2023-02-08T07:56:01;2.30;87.20
72604;DHT22;60645;56.968;24.196;2023-02-08T07:58:28;2.30;87.20
72604;DHT22;60645;56.968;24.196;2023-02-08T08:00:55;2.20;87.20
72604;DHT22;60645;56.968;24.196;2023-02-08T08:03:21;2.40;87.30
72604;DHT22;60645;56.968;24.196;2023-02-08T08:05:48;2.30;87.30
72604;DHT22;60645;56.968;24.196;2023-02-08T08:08:19;2.20;87.30
72604;DHT22;60645;56.968;24.196;2023-02-08T08:10:46;2.30;87.60
72604;DHT22;60645;56.968;24.196;2023-02-08T08:13:13;2.20;87.80
72604;DHT22;60645;56.968;24.196;2023-02-08T08:15:40;2.20;87.70
72604;DHT22;60645;56.968;24.196;2023-02-08T08:18:07;2.30;88.10
72604;DHT22;60645;56.968;24.196;2023-02-08T08:20:34;2.30;88.00
72604;DHT22;60645;56.968;24.196;2023-02-08T08:23:02;2.40;88.10
72604;DHT22;60645;56.968;24.196;2023-02-08T08:25:29;2.20;88.40
72604;DHT22;60645;56.968;24.196;2023-02-08T08:27:56;2.30;88.70
72604;DHT22;60645;56.968;24.196;2023-02-08T08:30:23;2.30;88.70
72604;DHT22;60645;56.968;24.196;2023-02-08T08:32:50;2.50;88.90
72604;DHT22;60645;56.968;24.196;2023-02-08T08:35:18;2.30;89.00
72604;DHT22;60645;56.968;24.196;2023-02-08T08:37:45;2.40;89.10
72604;DHT22;60645;56.968;24.196;2023-02-08T08:40:12;2.40;89.10
72604;DHT22;60645;56.968;24.196;2023-02-08T08:42:39;2.40;89.20
72604;DHT22;60645;56.968;24.196;2023-02-08T08:45:06;2.40;89.30
72604;DHT22;60645;56.968;24.196;2023-02-08T08:47:33;2.30;89.40
72604;DHT22;60645;56.968;24.196;2023-02-08T08:50:02;2.20;89.70
72604;DHT22;60645;56.968;24.196;2023-02-08T08:52:29;2.30;90.10
72604;DHT22;60645;56.968;24.196;2023-02-08T08:54:56;2.10;90.50
72604;DHT22;60645;56.968;24.196;2023-02-08T08:57:22;2.30;90.60
72604;DHT22;60645;56.968;24.196;2023-02-08T08:59:49;2.20;90.70
72604;DHT22;60645;56.968;24.196;2023-02-08T09:02:16;2.10;91.10
72604;DHT22;60645;56.968;24.196;2023-02-08T09:04:43;2.20;91.40
72604;DHT22;60645;56.968;24.196;2023-02-08T09:07:10;2.20;91.30
72604;DHT22;60645;56.968;24.196;2023-02-08T09:09:37;2.10;91.70
72604;DHT22;60645;56.968;24.196;2023-02-08T09:12:06;2.10;91.90
72604;DHT22;60645;56.968;24.196;2023-02-08T09:14:33;2.00;92.00
72604;DHT22;60645;56.968;24.196;2023-02-08T09:17:00;2.00;92.00
72604;DHT22;60645;56.968;24.196;2023-02-08T09:19:27;2.10;92.40
72604;DHT22;60645;56.968;24.196;2023-02-08T09:21:54;2.10;92.40
72604;DHT22;60645;56.968;24.196;2023-02-08T09:24:23;2.30;92.40
72604;DHT22;60645;56.968;24.196;2023-02-08T09:26:50;2.30;92.10
72604;DHT22;60645;56.968;24.196;2023-02-08T09:29:17;2.10;92.20
72604;DHT22;60645;56.968;24.196;2023-02-08T09:31:44;2.50;92.30
72604;DHT22;60645;56.968;24.196;2023-02-08T09:34:13;2.20;92.00
72604;DHT22;60645;56.968;24.196;2023-02-08T09:36:40;2.40;91.70
72604;DHT22;60645;56.968;24.196;2023-02-08T09:39:11;2.20;92.30
72604;DHT22;60645;56.968;24.196;2023-02-08T09:47:27;2.50;91.90
72604;DHT22;60645;56.968;24.196;2023-02-08T09:52:32;2.40;91.80
72604;DHT22;60645;56.968;24.196;2023-02-08T09:55:09;2.60;91.70
72604;DHT22;60645;56.968;24.196;2023-02-08T09:57:41;2.40;91.80
72604;DHT22;60645;56.968;24.196;2023-02-08T10:00:15;2.60;91.70
72604;DHT22;60645;56.968;24.196;2023-02-08T10:02:46;2.50;92.00
72604;DHT22;60645;56.968;24.196;2023-02-08T10:05:19;2.60;91.30
72604;DHT22;60645;56.968;24.196;2023-02-08T10:07:47;2.60;91.40
72604;DHT22;60645;56.968;24.196;2023-02-08T10:13:13;2.40;91.30
72604;DHT22;60645;56.968;24.196;2023-02-08T10:16:04;2.60;91.20
72604;DHT22;60645;56.968;24.196;2023-02-08T10:27:26;2.60;91.20
72604;DHT22;60645;56.968;24.196;2023-02-08T10:30:18;2.50;91.10
72604;DHT22;60645;56.968;24.196;2023-02-08T10:33:11;2.50;91.50
72604;DHT22;60645;56.968;24.196;2023-02-08T10:35:47;2.30;91.60
72604;DHT22;60645;56.968;24.196;2023-02-08T10:40:48;2.40;91.90
72604;DHT22;60645;56.968;24.196;2023-02-08T10:51:15;2.30;92.20
72604;DHT22;60645;56.968;24.196;2023-02-08T10:53:43;2.40;91.70
72604;DHT22;60645;56.968;24.196;2023-02-08T10:59:15;2.50;91.60
72604;DHT22;60645;56.968;24.196;2023-02-08T11:01:45;2.30;91.70
72604;DHT22;60645;56.968;24.196;2023-02-08T11:04:13;2.40;91.80
72604;DHT22;60645;56.968;24.196;2023-02-08T11:06:42;2.30;91.60
72604;DHT22;60645;56.968;24.196;2023-02-08T11:11:46;2.30;91.40
72604;DHT22;60645;56.968;24.196;2023-02-08T11:14:18;2.40;91.50
72604;DHT22;60645;56.968;24.196;2023-02-08T11:16:50;2.30;91.50
72604;DHT22;60645;56.968;24.196;2023-02-08T11:19:37;2.50;91.30
72604;DHT22;60645;56.968;24.196;2023-02-08T11:22:17;2.30;91.40
72604;DHT22;60645;56.968;24.196;2023-02-08T11:25:05;2.30;91.10
72604;DHT22;60645;56.968;24.196;2023-02-08T11:27:37;2.30;91.20
72604;DHT22;60645;56.968;24.196;2023-02-08T11:32:41;2.30;91.50
72604;DHT22;60645;56.968;24.196;2023-02-08T11:35:19;2.30;91.40
72604;DHT22;60645;56.968;24.196;2023-02-08T11:37:52;2.50;91.30
72604;DHT22;60645;56.968;24.196;2023-02-08T11:40:34;2.40;91.20
72604;DHT22;60645;56.968;24.196;2023-02-08T11:43:02;2.30;91.10
72604;DHT22;60645;56.968;24.196;2023-02-08T11:45:32;2.30;91.10
72604;DHT22;60645;56.968;24.196;2023-02-08T11:48:00;2.30;91.10
72604;DHT22;60645;56.968;24.196;2023-02-08T11:50:34;2.40;91.00
72604;DHT22;60645;56.968;24.196;2023-02-08T11:53:06;2.30;90.90
72604;DHT22;60645;56.968;24.196;2023-02-08T11:55:34;2.30;91.20
72604;DHT22;60645;56.968;24.196;2023-02-08T12:00:33;2.30;91.10
72604;DHT22;60645;56.968;24.196;2023-02-08T12:21:40;2.30;91.10
72604;DHT22;60645;56.968;24.196;2023-02-08T12:29:47;2.40;90.70
72604;DHT22;60645;56.968;24.196;2023-02-08T12:32:33;2.40;91.00
72604;DHT22;60645;56.968;24.196;2023-02-08T12:41:31;2.30;91.30
72604;DHT22;60645;56.968;24.196;2023-02-08T12:44:06;2.20;91.40
72604;DHT22;60645;56.968;24.196;2023-02-08T12:57:18;2.30;91.30
72604;DHT22;60645;56.968;24.196;2023-02-08T12:59:50;2.20;91.60
72604;DHT22;60645;56.968;24.196;2023-02-08T13:02:37;2.30;91.60
72604;DHT22;60645;56.968;24.196;2023-02-08T13:05:16;2.40;91.30
72604;DHT22;60645;56.968;24.196;2023-02-08T13:07:47;2.00;91.60
72604;DHT22;60645;56.968;24.196;2023-02-08T13:10:21;2.30;91.70
72604;DHT22;60645;56.968;24.196;2023-02-08T13:13:06;2.20;91.70
72604;DHT22;60645;56.968;24.196;2023-02-08T13:15:41;1.90;91.90
72604;DHT22;60645;56.968;24.196;2023-02-08T13:18:23;1.90;92.10
72604;DHT22;60645;56.968;24.196;2023-02-08T13:23:50;2.00;92.10
72604;DHT22;60645;56.968;24.196;2023-02-08T13:26:28;1.80;92.10
72604;DHT22;60645;56.968;24.196;2023-02-08T13:28:58;1.80;92.50
72604;DHT22;60645;56.968;24.196;2023-02-08T13:31:31;2.00;92.30
72604;DHT22;60645;56.968;24.196;2023-02-08T13:34:14;1.80;92.30
72604;DHT22;60645;56.968;24.196;2023-02-08T13:36:51;1.80;92.20
72604;DHT22;60645;56.968;24.196;2023-02-08T13:41:55;1.90;92.10
72604;DHT22;60645;56.968;24.196;2023-02-08T13:44:38;1.90;92.30
72604;DHT22;60645;56.968;24.196;2023-02-08T13:47:06;2.10;92.40
72604;DHT22;60645;56.968;24.196;2023-02-08T13:52:45;1.80;92.10
72604;DHT22;60645;56.968;24.196;2023-02-08T13:58:01;1.90;92.00
72604;DHT22;60645;56.968;24.196;2023-02-08T14:00:33;1.80;92.20
72604;DHT22;60645;56.968;24.196;2023-02-08T14:03:01;1.80;92.00
72604;DHT22;60645;56.968;24.196;2023-02-08T14:14:12;1.70;92.60
72604;DHT22;60645;56.968;24.196;2023-02-08T14:16:44;1.70;92.10
72604;DHT22;60645;56.968;24.196;2023-02-08T14:21:47;1.60;92.60
72604;DHT22;60645;56.968;24.196;2023-02-08T14:24:27;1.70;93.10
72604;DHT22;60645;56.968;24.196;2023-02-08T14:27:26;1.80;92.80
72604;DHT22;60645;56.968;24.196;2023-02-08T14:32:49;1.70;93.10
72604;DHT22;60645;56.968;24.196;2023-02-08T14:35:25;1.70;93.20
72604;DHT22;60645;56.968;24.196;2023-02-08T14:43:38;1.40;93.80
72604;DHT22;60645;56.968;24.196;2023-02-08T14:46:42;1.50;93.80
72604;DHT22;60645;56.968;24.196;2023-02-08T14:49:14;1.60;93.80
72604;DHT22;60645;56.968;24.196;2023-02-08T14:52:03;1.60;93.80
72604;DHT22;60645;56.968;24.196;2023-02-08T14:54:45;1.50;93.90
72604;DHT22;60645;56.968;24.196;2023-02-08T15:00:00;1.50;94.00
72604;DHT22;60645;56.968;24.196;2023-02-08T15:02:28;1.40;93.80
72604;DHT22;60645;56.968;24.196;2023-02-08T15:04:57;1.70;93.60
72604;DHT22;60645;56.968;24.196;2023-02-08T15:07:48;1.70;93.50
72604;DHT22;60645;56.968;24.196;2023-02-08T15:10:18;1.50;93.50
72604;DHT22;60645;56.968;24.196;2023-02-08T15:12:50;1.50;93.50
72604;DHT22;60645;56.968;24.196;2023-02-08T15:15:40;1.70;93.50
72604;DHT22;60645;56.968;24.196;2023-02-08T15:18:18;1.50;93.50
72604;DHT22;60645;56.968;24.196;2023-02-08T15:21:06;1.50;93.60
72604;DHT22;60645;56.968;24.196;2023-02-08T15:23:34;1.50;93.80
72604;DHT22;60645;56.968;24.196;2023-02-08T15:26:04;1.50;94.00
72604;DHT22;60645;56.968;24.196;2023-02-08T15:28:35;1.30;93.90
72604;DHT22;60645;56.968;24.196;2023-02-08T15:31:08;1.60;93.60
72604;DHT22;60645;56.968;24.196;2023-02-08T15:33:39;1.50;93.70
72604;DHT22;60645;56.968;24.196;2023-02-08T15:36:20;1.60;93.90
72604;DHT22;60645;56.968;24.196;2023-02-08T15:38:48;1.60;93.60
72604;DHT22;60645;56.968;24.196;2023-02-08T15:41:24;1.50;93.50
72604;DHT22;60645;56.968;24.196;2023-02-08T15:44:33;1.50;93.40
72604;DHT22;60645;56.968;24.196;2023-02-08T15:46:58;1.60;93.20
72604;DHT22;60645;56.968;24.196;2023-02-08T15:49:32;1.60;93.40
72604;DHT22;60645;56.968;24.196;2023-02-08T15:52:02;1.60;93.40
72604;DHT22;60645;56.968;24.196;2023-02-08T15:54:30;1.50;93.50
72604;DHT22;60645;56.968;24.196;2023-02-08T15:57:08;1.40;93.50
72604;DHT22;60645;56.968;24.196;2023-02-08T15:59:37;1.50;93.10
72604;DHT22;60645;56.968;24.196;2023-02-08T16:02:32;1.50;92.80
72604;DHT22;60645;56.968;24.196;2023-02-08T16:05:02;1.40;92.80
72604;DHT22;60645;56.968;24.196;2023-02-08T16:07:42;1.50;92.70
72604;DHT22;60645;56.968;24.196;2023-02-08T16:15:47;1.50;92.80
72604;DHT22;60645;56.968;24.196;2023-02-08T16:18:37;1.60;92.80
72604;DHT22;60645;56.968;24.196;2023-02-08T16:24:03;1.60;92.80
72604;DHT22;60645;56.968;24.196;2023-02-08T16:32:17;1.70;93.00
72604;DHT22;60645;56.968;24.196;2023-02-08T16:34:46;1.50;92.90
72604;DHT22;60645;56.968;24.196;2023-02-08T16:37:27;1.60;93.20
72604;DHT22;60645;56.968;24.196;2023-02-08T16:39:56;1.40;93.20
72604;DHT22;60645;56.968;24.196;2023-02-08T16:42:32;1.60;93.30
72604;DHT22;60645;56.968;24.196;2023-02-08T16:47:39;1.40;93.30
72604;DHT22;60645;56.968;24.196;2023-02-08T16:50:10;1.40;93.40
72604;DHT22;60645;56.968;24.196;2023-02-08T16:52:37;1.30;93.30
72604;DHT22;60645;56.968;24.196;2023-02-08T16:55:05;1.60;93.30
72604;DHT22;60645;56.968;24.196;2023-02-08T16:57:47;1.40;93.40
72604;DHT22;60645;56.968;24.196;2023-02-08T17:00:17;1.50;93.40
72604;DHT22;60645;56.968;24.196;2023-02-08T17:02:44;1.60;93.30
72604;DHT22;60645;56.968;24.196;2023-02-08T17:05:11;1.30;93.50
72604;DHT22;60645;56.968;24.196;2023-02-08T17:07:38;1.30;93.30
72604;DHT22;60645;56.968;24.196;2023-02-08T17:10:07;1.50;93.10
72604;DHT22;60645;56.968;24.196;2023-02-08T17:12:34;1.50;93.20
72604;DHT22;60645;56.968;24.196;2023-02-08T17:15:01;1.50;93.20
72604;DHT22;60645;56.968;24.196;2023-02-08T17:17:28;1.40;93.10
72604;DHT22;60645;56.968;24.196;2023-02-08T17:19:55;1.60;93.00
72604;DHT22;60645;56.968;24.196;2023-02-08T17:22:22;1.50;92.80
72604;DHT22;60645;56.968;24.196;2023-02-08T17:24:49;1.40;92.40
72604;DHT22;60645;56.968;24.196;2023-02-08T17:27:16;1.40;92.50
72604;DHT22;60645;56.968;24.196;2023-02-08T17:29:43;1.40;92.10
72604;DHT22;60645;56.968;24.196;2023-02-08T17:32:10;1.50;91.90
72604;DHT22;60645;56.968;24.196;2023-02-08T17:34:37;1.60;91.50
72604;DHT22;60645;56.968;24.196;2023-02-08T17:37:05;1.60;91.40
72604;DHT22;60645;56.968;24.196;2023-02-08T17:39:33;1.70;91.10
72604;DHT22;60645;56.968;24.196;2023-02-08T17:42:00;1.50;91.10
72604;DHT22;60645;56.968;24.196;2023-02-08T17:44:27;1.60;91.20
72604;DHT22;60645;56.968;24.196;2023-02-08T17:46:54;1.50;90.90
72604;DHT22;60645;56.968;24.196;2023-02-08T17:49:21;1.70;91.00
72604;DHT22;60645;56.968;24.196;2023-02-08T17:51:47;1.50;91.00
72604;DHT22;60645;56.968;24.196;2023-02-08T17:54:14;1.70;90.80
72604;DHT22;60645;56.968;24.196;2023-02-08T17:56:41;1.50;90.40
72604;DHT22;60645;56.968;24.196;2023-02-08T17:59:09;1.60;90.30
72604;DHT22;60645;56.968;24.196;2023-02-08T18:01:36;1.60;90.40
72604;DHT22;60645;56.968;24.196;2023-02-08T18:04:03;1.70;90.20
72604;DHT22;60645;56.968;24.196;2023-02-08T18:06:30;1.70;90.00
72604;DHT22;60645;56.968;24.196;2023-02-08T18:08:57;1.60;90.00
72604;DHT22;60645;56.968;24.196;2023-02-08T18:11:24;1.50;90.00
72604;DHT22;60645;56.968;24.196;2023-02-08T18:13:52;1.50;89.80
72604;DHT22;60645;56.968;24.196;2023-02-08T18:16:22;1.60;90.10
72604;DHT22;60645;56.968;24.196;2023-02-08T18:18:49;1.70;90.00
72604;DHT22;60645;56.968;24.196;2023-02-08T18:21:18;1.50;89.90
72604;DHT22;60645;56.968;24.196;2023-02-08T18:23:47;1.60;89.90
72604;DHT22;60645;56.968;24.196;2023-02-08T18:26:18;1.60;89.30
72604;DHT22;60645;56.968;24.196;2023-02-08T18:28:45;1.60;89.00
72604;DHT22;60645;56.968;24.196;2023-02-08T18:31:15;1.70;88.70
72604;DHT22;60645;56.968;24.196;2023-02-08T18:33:42;1.80;88.60
72604;DHT22;60645;56.968;24.196;2023-02-08T18:36:10;1.60;88.90
72604;DHT22;60645;56.968;24.196;2023-02-08T18:38:39;1.70;88.60
72604;DHT22;60645;56.968;24.196;2023-02-08T18:41:10;1.60;88.60
72604;DHT22;60645;56.968;24.196;2023-02-08T18:43:38;1.70;88.40
72604;DHT22;60645;56.968;24.196;2023-02-08T18:46:08;1.50;88.80
72604;DHT22;60645;56.968;24.196;2023-02-08T18:48:37;1.40;88.70
72604;DHT22;60645;56.968;24.196;2023-02-08T18:51:06;1.40;88.70
72604;DHT22;60645;56.968;24.196;2023-02-08T18:53:38;1.50;88.80
72604;DHT22;60645;56.968;24.196;2023-02-08T18:56:09;1.70;88.80
72604;DHT22;60645;56.968;24.196;2023-02-08T18:58:37;1.50;88.50
72604;DHT22;60645;56.968;24.196;2023-02-08T19:01:09;1.40;88.60
72604;DHT22;60645;56.968;24.196;2023-02-08T19:03:37;1.50;88.40
72604;DHT22;60645;56.968;24.196;2023-02-08T19:06:06;1.50;88.20
72604;DHT22;60645;56.968;24.196;2023-02-08T19:08:34;1.60;88.40
72604;DHT22;60645;56.968;24.196;2023-02-08T19:11:04;1.50;88.40
72604;DHT22;60645;56.968;24.196;2023-02-08T19:13:31;1.60;88.40
72604;DHT22;60645;56.968;24.196;2023-02-08T19:15:58;1.40;88.50
72604;DHT22;60645;56.968;24.196;2023-02-08T19:18:25;1.20;88.80
72604;DHT22;60645;56.968;24.196;2023-02-08T19:20:52;1.40;88.80
72604;DHT22;60645;56.968;24.196;2023-02-08T19:23:19;1.10;88.60
72604;DHT22;60645;56.968;24.196;2023-02-08T19:25:46;1.30;88.70
72604;DHT22;60645;56.968;24.196;2023-02-08T19:28:13;1.30;88.60
72604;DHT22;60645;56.968;24.196;2023-02-08T19:30:40;1.30;88.80
72604;DHT22;60645;56.968;24.196;2023-02-08T19:33:07;1.20;88.90
72604;DHT22;60645;56.968;24.196;2023-02-08T19:35:37;1.40;88.90
72604;DHT22;60645;56.968;24.196;2023-02-08T19:38:04;1.10;89.00
72604;DHT22;60645;56.968;24.196;2023-02-08T19:40:31;1.00;89.30
72604;DHT22;60645;56.968;24.196;2023-02-08T19:42:58;0.90;89.50
72604;DHT22;60645;56.968;24.196;2023-02-08T19:45:25;1.00;89.80
72604;DHT22;60645;56.968;24.196;2023-02-08T19:47:52;0.90;89.90
72604;DHT22;60645;56.968;24.196;2023-02-08T19:50:20;0.80;90.20
72604;DHT22;60645;56.968;24.196;2023-02-08T19:52:47;0.70;90.30
72604;DHT22;60645;56.968;24.196;2023-02-08T19:55:14;0.90;90.30
72604;DHT22;60645;56.968;24.196;2023-02-08T19:57:41;0.90;90.50
72604;DHT22;60645;56.968;24.196;2023-02-08T20:00:08;0.70;90.60
72604;DHT22;60645;56.968;24.196;2023-02-08T20:02:48;0.70;90.70
72604;DHT22;60645;56.968;24.196;2023-02-08T20:05:15;0.60;90.80
72604;DHT22;60645;56.968;24.196;2023-02-08T20:07:42;0.70;90.80
72604;DHT22;60645;56.968;24.196;2023-02-08T20:10:09;0.70;90.50
72604;DHT22;60645;56.968;24.196;2023-02-08T20:12:36;1.00;90.30
72604;DHT22;60645;56.968;24.196;2023-02-08T20:15:03;0.90;89.80
72604;DHT22;60645;56.968;24.196;2023-02-08T20:17:30;0.90;89.50